createdAt,value
2019-04-05T00:00:08.129Z,45.03
2019-04-05T00:02:36.729Z,48.53
2019-04-05T00:05:04.013Z,46.10
2019-04-05T00:07:30.569Z,45.23
2019-04-05T00:09:57.398Z,47.53
2019-04-05T00:12:24.146Z,47.27
2019-04-05T00:14:51.279Z,47.87
2019-04-05T00:17:18.149Z,47.23
2019-04-05T00:19:44.987Z,48.90
2019-04-05T00:22:11.576Z,48.17
2019-04-05T00:24:40.413Z,49.03
2019-04-05T00:27:07.214Z,51.90
2019-04-05T00:29:33.796Z,50.57
2019-04-05T00:32:00.764Z,51.60
2019-04-05T00:34:28.239Z,54.93
2019-04-05T00:36:54.901Z,52.97
2019-04-05T00:39:21.742Z,53.50
2019-04-05T00:41:48.355Z,54.07
2019-04-05T00:44:15.503Z,53.00
2019-04-05T00:46:44.870Z,56.17
2019-04-05T00:49:12.326Z,54.30
2019-04-05T00:51:40.713Z,57.33
2019-04-05T00:54:08.227Z,55.07
2019-04-05T00:56:35.095Z,57.33
2019-04-05T00:59:01.772Z,53.50
2019-04-05T01:01:28.651Z,58.83
2019-04-05T01:03:55.869Z,55.43
2019-04-05T01:06:23.235Z,56.53
2019-04-05T01:08:50.526Z,60.07
2019-04-05T01:11:17.590Z,63.27
2019-04-05T01:13:44.412Z,63.83
2019-04-05T01:16:11.128Z,61.87
2019-04-05T01:18:37.843Z,62.07
2019-04-05T01:21:04.895Z,62.20
2019-04-05T01:23:35.076Z,65.13
2019-04-05T01:26:03.245Z,64.50
2019-04-05T01:28:31.608Z,63.57
2019-04-05T01:30:58.684Z,68.03
2019-04-05T01:33:25.516Z,67.67
2019-04-05T01:35:52.471Z,67.30
2019-04-05T01:38:20.716Z,61.80
2019-04-05T01:40:47.855Z,66.23
2019-04-05T01:43:15.409Z,66.23
2019-04-05T01:45:53.035Z,68.37
2019-04-05T01:48:10.680Z,68.07
2019-04-05T01:50:40.565Z,65.97
2019-04-05T01:53:08.300Z,68.80
2019-04-05T01:55:35.481Z,70.03
2019-04-05T01:58:02.203Z,71.67
2019-04-05T02:00:29.064Z,71.30
2019-04-05T02:02:56.436Z,70.17
2019-04-05T02:05:23.273Z,73.40
2019-04-05T02:07:50.316Z,70.77
2019-04-05T02:10:17.064Z,70.53
2019-04-05T02:12:44.435Z,71.30
2019-04-05T02:15:22.560Z,73.07
2019-04-05T02:17:49.634Z,74.40
2019-04-05T02:20:16.628Z,76.50
2019-04-05T02:22:43.354Z,77.13
2019-04-05T02:25:10.617Z,77.20
2019-04-05T02:27:38.068Z,74.67
2019-04-05T02:30:05.607Z,72.90
2019-04-05T02:32:32.292Z,77.37
2019-04-05T02:34:59.962Z,79.00
2019-04-05T02:37:26.977Z,78.00
2019-04-05T02:39:53.988Z,77.03
2019-04-05T02:42:23.883Z,79.60
2019-04-05T02:44:52.307Z,78.43
2019-04-05T02:47:19.618Z,79.10
2019-04-05T02:49:46.406Z,80.10
2019-04-05T02:52:15.221Z,77.70
2019-04-05T02:54:42.516Z,77.70
2019-04-05T02:57:09.246Z,82.17
2019-04-05T02:59:36.202Z,79.47
2019-04-05T03:02:05.084Z,80.47
2019-04-05T03:04:32.187Z,78.03
2019-04-05T03:06:59.979Z,80.73
2019-04-05T03:09:26.811Z,102.65
2019-04-05T03:11:53.785Z,104.95
2019-04-05T03:14:20.487Z,86.47
2019-04-05T03:16:49.771Z,79.20
2019-04-05T03:19:19.266Z,79.07
2019-04-05T03:21:50.297Z,77.90
2019-04-05T03:24:20.057Z,77.63
2019-04-05T03:27:08.905Z,77.10
2019-04-05T03:29:36.965Z,75.37
2019-04-05T03:32:04.781Z,75.43
2019-04-05T03:34:31.488Z,74.40
2019-04-05T03:36:59.322Z,74.07
2019-04-05T03:39:26.239Z,74.50
2019-04-05T03:41:53.727Z,75.20
2019-04-05T03:44:23.146Z,79.35
2019-04-05T03:46:57.069Z,89.87
2019-04-05T03:49:18.949Z,73.17
2019-04-05T03:51:46.141Z,73.80
2019-04-05T03:54:14.204Z,69.70
2019-04-05T03:56:40.983Z,72.30
2019-04-05T03:59:07.724Z,72.03
2019-04-05T04:01:35.231Z,70.10
2019-04-05T04:04:02.527Z,70.37
2019-04-05T04:06:29.412Z,67.37
2019-04-05T04:08:57.327Z,69.90
2019-04-05T04:11:26.698Z,70.83
2019-04-05T04:13:54.291Z,68.33
2019-04-05T04:16:22.232Z,70.27
2019-04-05T04:18:50.117Z,69.13
2019-04-05T04:21:31.835Z,72.03
2019-04-05T04:23:59.616Z,70.70
2019-04-05T04:26:28.843Z,72.27
2019-04-05T04:28:56.556Z,71.27
2019-04-05T04:31:23.719Z,67.70
2019-04-05T04:33:50.856Z,71.83
2019-04-05T04:36:17.826Z,71.53
2019-04-05T04:38:44.609Z,67.70
2019-04-05T04:41:12.099Z,74.17
2019-04-05T04:43:39.101Z,75.17
2019-04-05T04:46:06.832Z,75.47
2019-04-05T04:48:33.860Z,72.80
2019-04-05T04:51:02.507Z,74.80
2019-04-05T04:53:30.189Z,75.20
2019-04-05T04:55:57.377Z,75.27
2019-04-05T04:58:24.262Z,74.60
2019-04-05T05:00:52.449Z,77.07
2019-04-05T05:03:19.749Z,75.03
2019-04-05T05:05:46.665Z,78.37
2019-04-05T05:08:14.129Z,78.93
2019-04-05T05:10:40.960Z,78.53
2019-04-05T05:13:07.700Z,80.23
2019-04-05T05:15:34.984Z,80.27
2019-04-05T05:18:01.916Z,81.67
2019-04-05T05:20:30.829Z,78.87
2019-04-05T05:22:58.070Z,76.53
2019-04-05T05:25:25.228Z,75.57
2019-04-05T05:27:52.491Z,77.23
2019-04-05T05:30:20.784Z,75.67
2019-04-05T05:32:47.775Z,81.90
2019-04-05T05:35:15.248Z,75.90
2019-04-05T05:37:42.245Z,78.10
2019-04-05T05:40:10.321Z,77.37
2019-04-05T05:42:37.114Z,73.20
2019-04-05T05:45:04.290Z,74.93
2019-04-05T05:47:31.610Z,76.57
2019-04-05T05:49:59.060Z,75.63
2019-04-05T05:52:26.161Z,74.13
2019-04-05T05:54:53.428Z,77.00
2019-04-05T05:57:20.227Z,72.47
2019-04-05T05:59:47.244Z,73.90
2019-04-05T06:02:13.996Z,72.73
2019-04-05T06:04:40.774Z,71.77
2019-04-05T06:07:07.645Z,71.13
2019-04-05T06:09:34.254Z,70.60
2019-04-05T06:12:01.359Z,68.87
2019-04-05T06:14:28.127Z,69.90
2019-04-05T06:16:54.986Z,66.57
2019-04-05T06:19:21.839Z,69.57
2019-04-05T06:21:53.958Z,67.90
2019-04-05T06:24:21.652Z,72.03
2019-04-05T06:26:49.283Z,71.07
2019-04-05T06:29:16.684Z,70.50
2019-04-05T06:31:43.916Z,74.90
2019-04-05T06:34:10.726Z,77.33
2019-04-05T06:36:37.795Z,76.47
2019-04-05T06:39:06.463Z,75.03
2019-04-05T06:41:33.422Z,72.17
2019-04-05T06:44:00.294Z,73.07
2019-04-05T06:46:26.892Z,73.03
2019-04-05T06:48:54.588Z,73.93
2019-04-05T06:51:21.902Z,71.23
2019-04-05T06:53:48.673Z,70.93
2019-04-05T06:56:17.261Z,70.40
2019-04-05T06:58:46.299Z,67.63
2019-04-05T07:01:13.716Z,69.77
2019-04-05T07:03:40.762Z,67.30
2019-04-05T07:06:07.743Z,62.90
2019-04-05T07:08:34.938Z,60.73
2019-04-05T07:11:02.848Z,60.20
2019-04-05T07:13:29.546Z,57.20
2019-04-05T07:15:56.731Z,57.03
2019-04-05T07:18:33.995Z,55.17
2019-04-05T07:20:52.165Z,54.07
2019-04-05T07:23:18.758Z,51.53
2019-04-05T07:25:45.797Z,50.00
2019-04-05T07:28:13.206Z,49.13
2019-04-05T07:30:41.040Z,45.87
2019-04-05T07:33:08.377Z,47.73
2019-04-05T07:35:37.740Z,43.63
2019-04-05T07:38:04.754Z,43.83
2019-04-05T07:40:32.519Z,41.20
2019-04-05T07:42:59.985Z,42.93
2019-04-05T07:45:26.649Z,42.93
2019-04-05T07:47:54.310Z,42.30
2019-04-05T07:50:21.514Z,42.87
2019-04-05T07:52:49.293Z,41.10
2019-04-05T07:55:16.279Z,40.43
2019-04-05T07:57:43.069Z,40.70
2019-04-05T08:00:23.001Z,41.80
2019-04-05T08:02:52.773Z,42.50
2019-04-05T08:05:19.571Z,43.43
2019-04-05T08:07:48.374Z,42.07
2019-04-05T08:10:16.107Z,41.53
2019-04-05T08:12:43.565Z,42.17
2019-04-05T08:15:10.808Z,42.17
2019-04-05T08:17:37.746Z,42.13
2019-04-05T08:20:05.204Z,39.37
2019-04-05T08:22:33.014Z,39.77
2019-04-05T08:24:59.918Z,37.77
2019-04-05T08:27:27.063Z,38.30
2019-04-05T08:29:53.639Z,35.83
2019-04-05T08:32:20.261Z,36.83
2019-04-05T08:34:47.302Z,37.50
2019-04-05T08:37:14.577Z,37.47
2019-04-05T08:39:43.355Z,37.00
2019-04-05T08:42:10.953Z,35.37
2019-04-05T08:44:39.141Z,36.00
2019-04-05T08:47:07.944Z,34.47
2019-04-05T08:49:34.767Z,34.57
2019-04-05T08:52:01.360Z,34.50
2019-04-05T08:54:32.719Z,36.07
2019-04-05T08:56:56.629Z,36.70
2019-04-05T08:59:49.984Z,35.50
2019-04-05T09:10:07.961Z,34.97
2019-04-05T09:10:24.849Z,35.53
2019-04-05T09:14:06.690Z,36.13
2019-04-05T09:16:59.184Z,35.10
2019-04-05T09:20:13.558Z,35.43
2019-04-05T09:23:37.335Z,35.43
2019-04-05T09:26:14.390Z,34.63
2019-04-05T09:29:12.126Z,35.50
2019-04-05T09:31:45.931Z,34.63
2019-04-05T09:34:42.697Z,35.00
2019-04-05T09:37:57.940Z,34.60
2019-04-05T09:40:43.678Z,33.50
2019-04-05T09:43:32.999Z,34.47
2019-04-05T09:46:16.475Z,31.67
2019-04-05T09:49:11.067Z,34.10
2019-04-05T09:51:52.047Z,33.63
2019-04-05T09:54:26.178Z,36.77
2019-04-05T09:57:58.670Z,34.40
2019-04-05T10:01:36.456Z,34.70
2019-04-05T10:08:14.070Z,34.53
2019-04-05T10:11:01.548Z,35.00
2019-04-05T10:13:37.824Z,34.10
2019-04-05T10:16:23.545Z,34.85
2019-04-05T10:18:54.185Z,34.15
2019-04-05T10:21:27.952Z,33.33
2019-04-05T10:24:00.419Z,31.27
2019-04-05T10:26:30.241Z,33.45
2019-04-05T10:28:57.355Z,35.03
2019-04-05T10:31:24.045Z,32.95
2019-04-05T10:33:51.124Z,32.90
2019-04-05T10:36:19.957Z,36.53
2019-04-05T10:38:46.605Z,35.13
2019-04-05T10:41:15.412Z,34.15
2019-04-05T10:43:45.509Z,33.80
2019-04-05T10:46:13.154Z,31.65
2019-04-05T10:48:43.057Z,32.35
2019-04-05T10:51:10.347Z,34.48
2019-04-05T10:53:37.184Z,34.73
2019-04-05T10:56:04.007Z,35.60
2019-04-05T10:58:39.090Z,34.78
2019-04-05T11:01:06.557Z,33.42
2019-04-05T11:03:38.723Z,33.60
2019-04-05T11:06:05.632Z,32.33
2019-04-05T11:08:32.487Z,33.63
2019-04-05T11:11:00.260Z,28.98
2019-04-05T11:13:27.021Z,32.95
2019-04-05T11:15:56.707Z,32.58
2019-04-05T11:18:23.840Z,30.15
2019-04-05T11:20:50.691Z,30.88
2019-04-05T11:23:21.062Z,29.23
2019-04-05T11:25:50.790Z,30.27
2019-04-05T11:28:19.867Z,30.70
2019-04-05T11:30:47.755Z,31.57
2019-04-05T11:33:20.864Z,30.25
2019-04-05T11:35:48.309Z,30.72
2019-04-05T11:38:18.379Z,31.40
2019-04-05T11:40:47.556Z,29.23
2019-04-05T11:43:14.959Z,29.90
2019-04-05T11:45:41.898Z,30.35
2019-04-05T11:48:08.751Z,29.30
2019-04-05T11:50:35.587Z,29.87
2019-04-05T11:53:03.460Z,29.55
2019-04-05T11:55:30.568Z,29.23
2019-04-05T11:57:57.643Z,29.30
2019-04-05T12:00:33.526Z,29.42
2019-04-05T12:03:09.681Z,30.10
2019-04-05T12:05:37.744Z,28.85
2019-04-05T12:18:32.516Z,30.68
2019-04-05T12:19:51.686Z,30.30
2019-04-05T12:22:35.564Z,31.82
2019-04-05T13:38:36.338Z,32.05
2019-04-05T13:41:04.213Z,31.15
2019-04-05T13:43:33.693Z,31.73
2019-04-05T13:46:00.752Z,30.62
2019-04-05T13:48:27.900Z,31.93
2019-04-05T13:50:55.289Z,32.60
2019-04-05T13:53:21.995Z,31.75
2019-04-05T13:55:52.496Z,30.32
2019-04-05T13:58:19.837Z,29.95
2019-04-05T14:00:48.747Z,31.05
2019-04-05T14:03:15.320Z,30.60
2019-04-05T14:05:42.153Z,29.25
2019-04-05T14:08:11.029Z,30.92
2019-04-05T14:10:39.670Z,29.80
2019-04-05T14:13:07.629Z,30.75
2019-04-05T14:15:35.225Z,31.07
2019-04-05T14:18:06.239Z,31.70
2019-04-05T14:20:32.962Z,29.57
2019-04-05T14:23:00.486Z,31.65
2019-04-05T14:25:30.153Z,31.27
2019-04-05T14:27:56.800Z,29.90
2019-04-05T14:30:23.548Z,30.15
2019-04-05T14:32:51.141Z,31.40
2019-04-05T14:35:19.805Z,32.03
2019-04-05T14:37:48.358Z,32.45
2019-04-05T14:40:15.446Z,32.03
2019-04-05T14:42:44.584Z,30.82
2019-04-05T14:45:12.454Z,30.92
2019-04-05T14:47:43.498Z,29.55
2019-04-05T14:50:10.658Z,30.82
2019-04-05T14:53:00.758Z,29.27
2019-04-05T14:55:27.620Z,29.72
2019-04-05T14:57:55.671Z,29.63
2019-04-05T15:00:22.474Z,29.40
2019-04-05T15:02:49.256Z,29.98
2019-04-05T15:05:16.123Z,30.37
2019-04-05T15:07:42.907Z,31.50
2019-04-05T15:10:09.703Z,31.93
2019-04-05T15:12:36.571Z,31.40
2019-04-05T15:15:25.030Z,31.05
2019-04-05T15:17:51.940Z,31.45
2019-04-05T15:20:19.139Z,29.48
2019-04-05T15:22:46.148Z,30.60
2019-04-05T15:25:16.644Z,31.35
2019-04-05T15:27:41.910Z,32.73
2019-04-05T15:30:08.695Z,29.67
2019-04-05T15:32:36.238Z,29.95
2019-04-05T15:35:03.498Z,32.15
2019-04-05T15:37:32.531Z,32.53
2019-04-05T15:40:01.049Z,31.70
2019-04-05T15:42:27.648Z,33.70
2019-04-05T15:44:54.676Z,34.33
2019-04-05T15:47:23.518Z,33.55
2019-04-05T15:49:52.044Z,32.88
2019-04-05T15:52:19.738Z,32.83
2019-04-05T15:54:46.370Z,37.03
2019-04-05T15:57:13.031Z,36.33
2019-04-05T15:59:40.161Z,34.98
2019-04-05T16:02:06.926Z,35.92
2019-04-05T16:04:33.748Z,36.95
2019-04-05T16:07:00.588Z,34.40
2019-04-05T16:09:27.512Z,33.23
2019-04-05T16:11:55.052Z,34.92
2019-04-05T16:14:21.752Z,35.52
2019-04-05T16:16:48.511Z,34.30
2019-04-05T16:19:15.085Z,33.87
2019-04-05T16:21:42.186Z,33.63
2019-04-05T16:24:08.919Z,34.83
2019-04-05T16:26:35.594Z,34.43
2019-04-05T16:29:02.343Z,33.53
2019-04-05T16:31:29.076Z,34.33
2019-04-05T16:33:56.735Z,33.10
2019-04-05T16:36:23.545Z,34.03
2019-04-05T16:38:50.549Z,34.10
2019-04-05T16:41:17.519Z,32.23
2019-04-05T16:43:44.706Z,33.73
2019-04-05T16:46:12.315Z,33.15
2019-04-05T16:48:39.043Z,33.73
2019-04-05T16:51:05.760Z,32.40
2019-04-05T16:53:32.472Z,32.50
2019-04-05T16:55:59.123Z,33.03
2019-04-05T16:58:25.840Z,32.13
2019-04-05T17:00:52.505Z,33.50
2019-04-05T17:03:21.718Z,33.23
2019-04-05T17:05:48.946Z,34.87
2019-04-05T17:08:16.934Z,34.70
2019-04-05T17:10:44.603Z,33.83
2019-04-05T17:13:11.485Z,33.33
2019-04-05T17:15:38.110Z,34.27
2019-04-05T17:18:07.059Z,35.30
2019-04-05T17:20:34.750Z,33.97
2019-04-05T17:23:01.449Z,34.10
2019-04-05T17:25:28.287Z,33.30
2019-04-05T17:28:06.908Z,34.23
2019-04-05T17:30:36.192Z,34.27
2019-04-05T17:33:03.425Z,34.63
2019-04-05T17:35:30.196Z,34.00
2019-04-05T17:37:56.830Z,32.93
2019-04-05T17:40:23.526Z,33.10
2019-04-05T17:42:50.546Z,34.67
2019-04-05T17:45:17.271Z,33.57
2019-04-05T17:47:45.410Z,34.37
2019-04-05T17:50:18.877Z,34.20
2019-04-05T17:52:45.809Z,33.30
2019-04-05T17:55:12.535Z,32.63
2019-04-05T17:57:39.902Z,34.77
2019-04-05T18:00:11.056Z,32.93
2019-04-05T18:02:37.857Z,33.63
2019-04-05T18:05:04.902Z,32.30
2019-04-05T18:07:31.839Z,31.83
2019-04-05T18:09:58.618Z,34.13
2019-04-05T18:12:25.411Z,34.00
2019-04-05T18:14:52.450Z,31.80
2019-04-05T18:17:19.165Z,33.90
2019-04-05T18:19:45.949Z,33.47
2019-04-05T18:22:12.850Z,32.37
2019-04-05T18:24:39.918Z,33.30
2019-04-05T18:27:08.003Z,33.70
2019-04-05T18:29:34.735Z,33.17
2019-04-05T18:32:02.985Z,32.90
2019-04-05T18:34:29.819Z,32.37
2019-04-05T18:36:56.551Z,34.17
2019-04-05T18:39:23.926Z,32.50
2019-04-05T18:41:50.607Z,32.63
2019-04-05T18:44:17.551Z,31.87
2019-04-05T18:46:44.293Z,31.70
2019-04-05T18:49:11.025Z,30.77
2019-04-05T18:51:37.992Z,31.43
2019-04-05T18:54:05.775Z,31.90
2019-04-05T18:56:32.797Z,31.33
2019-04-05T18:58:59.416Z,32.00
2019-04-05T19:01:26.400Z,30.70
2019-04-05T19:03:53.010Z,35.60
2019-04-05T19:06:19.596Z,31.77
2019-04-05T19:08:46.268Z,30.47
2019-04-05T19:11:12.916Z,30.60
2019-04-05T19:13:39.964Z,30.23
2019-04-05T19:16:06.791Z,30.63
2019-04-05T19:18:35.147Z,28.87
2019-04-05T19:21:03.208Z,30.30
2019-04-05T19:23:29.871Z,29.47
2019-04-05T19:25:57.131Z,28.73
2019-04-05T19:28:24.853Z,30.53
2019-04-05T19:48:32.790Z,29.53
2019-04-05T19:50:45.505Z,29.87
2019-04-05T19:53:12.548Z,30.43
2019-04-05T19:55:39.123Z,30.07
2019-04-05T19:58:06.182Z,30.90
2019-04-05T20:00:33.162Z,33.00
2019-04-05T20:03:00.200Z,34.08
2019-04-05T20:05:27.949Z,30.10
2019-04-05T20:07:54.662Z,28.77
2019-04-05T20:10:21.204Z,27.80
2019-04-05T20:12:47.860Z,32.67
2019-04-05T20:15:14.651Z,33.38
2019-04-05T20:17:41.714Z,27.53
2019-04-05T20:20:09.873Z,28.87
2019-04-05T20:22:38.071Z,27.47
2019-04-05T20:25:05.641Z,27.17
2019-04-05T20:27:32.461Z,27.83
2019-04-05T20:29:59.071Z,27.13
2019-04-05T20:32:25.946Z,25.80
2019-04-05T20:34:52.671Z,30.52
2019-04-05T20:37:19.430Z,27.93
2019-04-05T20:39:46.172Z,28.23
2019-04-05T20:42:12.934Z,25.40
2019-04-05T20:44:39.508Z,27.07
2019-04-05T20:47:06.157Z,27.87
2019-04-05T20:49:32.868Z,28.13
2019-04-05T20:51:59.661Z,28.17
2019-04-05T20:54:26.905Z,25.57
2019-04-05T20:56:53.576Z,27.90
2019-04-05T20:59:20.837Z,26.63
2019-04-05T21:01:47.530Z,27.10
2019-04-05T21:04:15.323Z,25.83
2019-04-05T21:06:42.250Z,27.43
2019-04-05T21:09:09.090Z,27.00
2019-04-05T21:11:35.858Z,25.63
2019-04-05T21:14:02.520Z,26.03
2019-04-05T21:16:29.768Z,26.07
2019-04-05T21:18:56.441Z,25.87
2019-04-05T21:21:24.057Z,26.10
2019-04-05T21:23:51.109Z,25.70
2019-04-05T21:26:19.815Z,25.37
2019-04-05T21:28:46.418Z,24.00
2019-04-05T21:31:13.230Z,26.87
2019-04-05T21:33:40.717Z,25.33
2019-04-05T21:36:07.422Z,25.33
2019-04-05T21:38:34.724Z,26.53
2019-04-05T21:41:01.661Z,25.17
2019-04-05T21:43:28.516Z,25.30
2019-04-05T21:45:55.445Z,25.30
2019-04-05T21:48:22.084Z,25.33
2019-04-05T21:50:48.753Z,25.47
2019-04-05T21:53:15.769Z,26.77
2019-04-05T21:55:43.083Z,26.07
2019-04-05T21:58:10.333Z,25.43
2019-04-05T22:00:44.914Z,28.83
2019-04-05T22:03:13.500Z,27.63
2019-04-05T22:05:41.483Z,27.27
2019-04-05T22:08:08.535Z,26.63
2019-04-05T22:10:36.019Z,28.20
2019-04-05T22:13:04.471Z,26.93
2019-04-05T22:15:31.297Z,26.80
2019-04-05T22:17:57.935Z,26.23
2019-04-05T22:20:24.882Z,27.87
2019-04-05T22:22:51.699Z,27.47
2019-04-05T22:25:18.757Z,26.87
2019-04-05T22:27:45.882Z,27.47
2019-04-05T22:30:12.800Z,26.97
2019-04-05T22:32:39.454Z,27.70
2019-04-05T22:35:06.140Z,28.10
2019-04-05T22:37:33.125Z,27.90
2019-04-05T22:40:00.785Z,27.47
2019-04-05T22:42:27.433Z,28.57
2019-04-05T22:44:53.976Z,28.97
2019-04-05T22:47:21.560Z,28.87
2019-04-05T22:49:48.244Z,28.00
2019-04-05T22:52:14.879Z,27.83
2019-04-05T22:54:41.933Z,29.20
2019-04-05T22:57:08.900Z,27.87
2019-04-05T22:59:37.396Z,29.70
2019-04-05T23:02:04.103Z,28.30
2019-04-05T23:04:31.865Z,27.67
2019-04-05T23:06:58.445Z,27.53
2019-04-05T23:09:28.149Z,28.10
2019-04-05T23:11:55.166Z,28.33
2019-04-05T23:14:22.331Z,29.33
2019-04-05T23:16:49.099Z,28.77
2019-04-05T23:19:15.942Z,28.10
2019-04-05T23:21:42.989Z,27.77
2019-04-05T23:24:09.609Z,27.67
2019-04-05T23:26:36.179Z,27.43
2019-04-05T23:29:03.799Z,29.37
2019-04-05T23:31:30.765Z,29.53
2019-04-05T23:33:57.521Z,29.33
2019-04-05T23:36:25.145Z,29.50
2019-04-05T23:38:52.144Z,29.60
2019-04-05T23:41:18.829Z,30.43
2019-04-05T23:43:45.418Z,30.87
2019-04-05T23:46:13.096Z,34.00
2019-04-05T23:48:40.353Z,32.33
2019-04-05T23:51:07.522Z,31.73
2019-04-05T23:53:34.190Z,30.83
2019-04-05T23:56:01.286Z,31.13
2019-04-05T23:58:27.967Z,33.33
